Time;durP1;ratioP1;P1;durP2;ratioP2;P2;SDS_P1;SDS_P2;PMS_P1;PMS_P2;Temp;Humidity;BMP_temperature;BMP_pressure;BME280_temperature;BME280_humidity;BME280_pressure;Samples;Min_cycle;Max_cycle;Signal;HPM_P1;HPM_P2
2023/08/09 00:00:05;;;;;;;1.65;1.00;;;;;;;17.07;94.27;98319.03;4205178;28;20218;-48
2023/08/09 00:02:06;;;;;;;2.05;1.40;;;;;;;17.12;94.13;98330.03;4203965;28;20234;-47
2023/08/09 00:04:08;;;;;;;1.42;1.00;;;;;;;17.12;94.48;98330.03;4205862;28;20210;-49
2023/08/09 00:06:10;;;;;;;1.10;1.00;;;;;;;17.06;95.06;98334.78;4186576;28;20267;-48
2023/08/09 00:08:12;;;;;;;2.00;1.00;;;;;;;17.09;94.56;98341.66;4205142;28;20579;-50
2023/08/09 00:10:14;;;;;;;2.67;1.30;;;;;;;17.08;94.54;98340.00;4206828;28;20203;-47
2023/08/09 00:12:16;;;;;;;1.92;1.17;;;;;;;17.09;94.10;98336.97;4213919;28;20651;-48
2023/08/09 00:14:17;;;;;;;1.95;1.25;;;;;;;17.07;94.39;98330.06;4226554;28;20654;-48
2023/08/09 00:16:19;;;;;;;1.75;1.02;;;;;;;17.05;94.00;98333.13;4221812;28;20206;-47
2023/08/09 00:18:21;;;;;;;1.60;0.98;;;;;;;17.12;93.59;98335.56;4203428;28;20272;-49
2023/08/09 00:20:23;;;;;;;2.13;1.10;;;;;;;17.09;93.61;98336.97;4220964;28;20210;-48
2023/08/09 00:22:24;;;;;;;1.30;1.20;;;;;;;17.11;93.11;98339.44;4204570;28;20274;-50
2023/08/09 00:24:26;;;;;;;2.47;1.08;;;;;;;17.11;92.80;98333.91;4203076;28;20251;-49
2023/08/09 00:26:28;;;;;;;1.02;0.90;;;;;;;17.12;93.04;98336.34;4204785;28;20673;-48
2023/08/09 00:28:30;;;;;;;2.65;1.40;;;;;;;17.17;92.42;98335.47;4206903;28;20272;-49
2023/08/09 00:30:32;;;;;;;2.13;1.40;;;;;;;17.16;93.02;98337.41;4205543;28;20289;-49
2023/08/09 00:32:33;;;;;;;1.55;0.90;;;;;;;17.12;92.84;98341.09;4199625;28;20229;-48
2023/08/09 00:34:35;;;;;;;2.47;0.93;;;;;;;17.13;93.42;98331.66;4201220;28;20211;-48
2023/08/09 00:36:37;;;;;;;1.33;0.98;;;;;;;17.09;92.62;98336.13;4207041;28;20222;-48
2023/08/09 00:38:39;;;;;;;3.80;1.23;;;;;;;17.13;92.79;98329.69;4209326;28;20251;-51
2023/08/09 00:40:40;;;;;;;3.13;1.20;;;;;;;17.08;93.14;98340.84;4208224;28;20202;-48
2023/08/09 00:42:42;;;;;;;1.13;0.80;;;;;;;17.09;92.81;98336.13;4191587;28;20227;-49
2023/08/09 00:44:44;;;;;;;1.50;1.00;;;;;;;17.13;93.44;98337.19;4221887;28;20210;-48
2023/08/09 00:46:46;;;;;;;2.15;0.90;;;;;;;17.08;93.30;98333.69;4204728;28;20214;-48
2023/08/09 00:48:47;;;;;;;2.42;1.20;;;;;;;17.14;93.03;98334.13;4201073;28;20230;-48
2023/08/09 00:50:49;;;;;;;2.03;0.90;;;;;;;17.25;92.99;98326.53;4185670;28;20224;-49
2023/08/09 00:52:51;;;;;;;1.30;0.93;;;;;;;17.18;93.20;98329.63;4202923;28;20235;-48
2023/08/09 00:54:53;;;;;;;3.05;1.13;;;;;;;17.09;93.89;98338.88;4200500;28;20218;-48
2023/08/09 00:56:55;;;;;;;3.63;1.30;;;;;;;17.13;93.37;98332.47;4187345;28;20739;-49
2023/08/09 00:58:57;;;;;;;1.65;1.10;;;;;;;17.17;93.11;98332.69;4203203;28;20305;-49
2023/08/09 01:00:59;;;;;;;1.55;1.00;;;;;;;17.14;93.56;98338.84;4199917;28;20775;-48
2023/08/09 01:03:01;;;;;;;1.20;1.10;;;;;;;17.20;93.14;98345.94;4201984;28;20256;-48
2023/08/09 01:05:04;;;;;;;2.03;1.23;;;;;;;17.11;93.96;98345.78;4200585;28;20207;-49
2023/08/09 01:07:16;;;;;;;2.08;0.95;;;;;;;17.14;93.94;98336.06;4202064;28;20226;-48
2023/08/09 01:09:33;;;;;;;3.45;0.90;;;;;;;17.11;94.32;98339.44;4200366;28;20376;-48
2023/08/09 01:11:54;;;;;;;0.98;0.73;;;;;;;17.04;95.43;98334.25;4211304;28;20786;-48
2023/08/09 01:13:57;;;;;;;6.60;1.50;;;;;;;17.05;95.33;98335.09;4226695;28;20216;-50
2023/08/09 01:16:00;;;;;;;1.10;1.00;;;;;;;17.03;96.02;98334.53;4194738;28;20242;-48
2023/08/09 01:18:03;;;;;;;2.97;1.30;;;;;;;17.02;95.94;98332.91;4193946;28;20294;-49
2023/08/09 01:20:11;;;;;;;1.15;0.90;;;;;;;17.09;95.55;98336.13;4195141;28;20203;-47
2023/08/09 01:22:23;;;;;;;1.15;1.00;;;;;;;16.98;96.32;98339.31;4208021;28;20230;-49
2023/08/09 01:24:26;;;;;;;0.95;0.88;;;;;;;17.00;96.39;98329.63;4186643;28;20200;-48
2023/08/09 01:26:27;;;;;;;1.38;1.27;;;;;;;16.97;96.93;98332.97;4189598;28;20222;-48
2023/08/09 01:28:29;;;;;;;1.60;1.20;;;;;;;17.05;96.22;98329.56;4205694;28;20776;-49
2023/08/09 01:30:33;;;;;;;2.35;1.10;;;;;;;17.00;97.05;98327.66;4205341;28;20222;-48
2023/08/09 01:32:37;;;;;;;1.25;1.13;;;;;;;17.04;97.08;98325.97;4223270;28;20236;-50
2023/08/09 01:34:39;;;;;;;1.98;0.98;;;;;;;16.99;97.00;98330.75;4202602;28;20199;-48
2023/08/09 01:36:43;;;;;;;3.17;1.50;;;;;;;17.09;97.15;98325.06;4192532;28;20238;-48
2023/08/09 01:38:48;;;;;;;2.00;0.90;;;;;;;16.93;97.68;98326.38;4187904;28;20650;-48
2023/08/09 01:40:51;;;;;;;2.65;1.48;;;;;;;16.97;97.41;98327.44;4205867;28;20321;-48
2023/08/09 01:42:53;;;;;;;2.08;1.27;;;;;;;16.93;97.43;98327.19;4205953;28;20231;-47
2023/08/09 01:44:55;;;;;;;1.30;0.98;;;;;;;16.98;97.57;98334.63;4206357;28;20272;-49
2023/08/09 01:46:57;;;;;;;1.73;1.17;;;;;;;16.94;97.57;98328.03;4187605;28;20207;-47
2023/08/09 01:49:13;;;;;;;2.20;0.82;;;;;;;16.95;97.78;98326.91;4229406;28;20236;-48
2023/08/09 01:51:15;;;;;;;1.80;1.23;;;;;;;16.89;98.29;98325.31;4223076;28;20206;-50
2023/08/09 01:53:16;;;;;;;3.40;1.05;;;;;;;16.90;97.73;98326.97;4202935;28;20633;-50
2023/08/09 01:55:19;;;;;;;1.52;0.80;;;;;;;16.95;97.27;98329.66;4189561;28;20223;-49
2023/08/09 01:57:21;;;;;;;1.95;1.15;;;;;;;16.99;96.96;98327.97;4205536;28;21288;-47
2023/08/09 01:59:23;;;;;;;4.18;1.33;;;;;;;17.07;97.10;98321.78;4205680;28;20207;-49
2023/08/09 02:01:25;;;;;;;1.52;1.10;;;;;;;17.06;97.41;98320.16;4193051;28;20204;-48
2023/08/09 02:03:27;;;;;;;1.50;1.10;;;;;;;16.89;99.03;98325.31;4211687;28;20230;-48
2023/08/09 02:05:29;;;;;;;1.98;1.00;;;;;;;16.91;98.37;98322.28;4206806;28;20789;-49
2023/08/09 02:07:30;;;;;;;2.35;1.20;;;;;;;16.88;98.49;98329.22;4208322;28;20207;-48
2023/08/09 02:09:32;;;;;;;3.10;1.33;;;;;;;16.88;98.43;98325.63;4204312;28;20234;-49
2023/08/09 02:11:34;;;;;;;1.20;0.98;;;;;;;16.94;98.02;98325.25;4193706;28;20719;-49
2023/08/09 02:13:36;;;;;;;2.25;0.68;;;;;;;16.88;98.70;98323.69;4222787;28;20210;-48
2023/08/09 02:15:37;;;;;;;3.08;1.00;;;;;;;16.85;98.53;98334.50;4188815;28;20245;-50
2023/08/09 02:17:39;;;;;;;1.73;0.90;;;;;;;16.80;99.42;98332.63;4203152;28;20246;-50
2023/08/09 02:19:41;;;;;;;2.70;1.20;;;;;;;16.94;98.39;98333.56;4210260;28;20238;-49
2023/08/09 02:21:43;;;;;;;1.45;1.20;;;;;;;16.91;98.57;98333.31;4204318;28;20260;-48
2023/08/09 02:23:45;;;;;;;2.88;1.10;;;;;;;16.99;98.06;98327.97;4208738;28;20214;-49
2023/08/09 02:25:46;;;;;;;1.20;1.15;;;;;;;16.84;98.67;98333.66;4207207;28;20210;-47
2023/08/09 02:27:48;;;;;;;2.42;1.10;;;;;;;16.77;99.35;98332.41;4207313;28;20218;-47
2023/08/09 02:29:50;;;;;;;1.20;1.10;;;;;;;16.86;98.91;98327.84;4204985;28;20719;-49
2023/08/09 02:31:52;;;;;;;2.75;1.10;;;;;;;16.92;98.61;98336.63;4205002;28;20210;-50
2023/08/09 02:33:55;;;;;;;2.20;1.13;;;;;;;16.81;98.92;98336.19;4210861;28;20206;-48
2023/08/09 02:36:02;;;;;;;2.55;1.05;;;;;;;16.77;98.34;98332.41;4205801;28;20252;-48
2023/08/09 02:38:03;;;;;;;4.28;1.10;;;;;;;16.69;98.88;98330.28;4204088;28;20257;-49
2023/08/09 02:40:06;;;;;;;1.38;1.10;;;;;;;16.67;99.15;98332.50;4204548;28;20653;-48
2023/08/09 02:42:08;;;;;;;1.30;1.05;;;;;;;16.78;98.93;98334.03;4202212;28;20238;-49
2023/08/09 02:44:10;;;;;;;1.17;1.05;;;;;;;16.68;99.00;98339.69;4223498;27;20219;-48
2023/08/09 02:46:12;;;;;;;1.42;1.33;;;;;;;16.70;98.81;98343.78;4206205;28;20211;-48
2023/08/09 02:48:14;;;;;;;3.08;1.27;;;;;;;16.67;99.08;98338.84;4204367;28;20207;-48
2023/08/09 02:50:16;;;;;;;3.92;1.60;;;;;;;16.67;99.41;98338.84;4206719;28;20287;-47
2023/08/09 02:52:17;;;;;;;2.35;1.23;;;;;;;16.64;98.74;98350.47;4211151;28;20226;-48
2023/08/09 02:54:19;;;;;;;1.52;1.00;;;;;;;16.65;98.87;98341.09;4206623;28;20203;-51
2023/08/09 02:56:21;;;;;;;2.47;1.35;;;;;;;16.62;99.28;98341.66;4204727;28;20249;-48
2023/08/09 02:58:23;;;;;;;1.48;1.00;;;;;;;16.62;99.40;98336.16;4204220;28;20207;-48
2023/08/09 03:00:25;;;;;;;1.85;1.20;;;;;;;16.68;99.07;98351.56;4203381;28;20211;-48
2023/08/09 03:02:26;;;;;;;1.20;0.95;;;;;;;16.73;98.97;98354.28;4209216;28;20230;-48
2023/08/09 03:04:28;;;;;;;4.15;1.17;;;;;;;16.73;98.92;98345.13;4201642;28;20588;-49
2023/08/09 03:06:30;;;;;;;2.50;1.08;;;;;;;16.74;98.80;98349.53;4210651;28;20215;-49
2023/08/09 03:08:32;;;;;;;2.78;1.30;;;;;;;16.66;99.23;98350.19;4192953;28;20746;-48
2023/08/09 03:10:34;;;;;;;2.50;1.17;;;;;;;16.67;99.06;98360.97;4208185;28;20638;-48
2023/08/09 03:12:36;;;;;;;4.85;1.55;;;;;;;16.71;98.88;98350.97;4216499;28;20766;-48
2023/08/09 03:14:37;;;;;;;2.75;1.05;;;;;;;16.71;98.67;98356.50;4201018;28;20831;-48
2023/08/09 03:16:41;;;;;;;2.17;1.10;;;;;;;16.76;98.53;98350.91;4211378;28;20987;-51
2023/08/09 03:18:43;;;;;;;5.50;0.95;;;;;;;16.63;98.65;98348.84;4203594;28;20797;-50
2023/08/09 03:20:44;;;;;;;2.00;1.25;;;;;;;16.69;98.53;98353.19;4222344;28;20210;-49
2023/08/09 03:22:48;;;;;;;2.22;1.30;;;;;;;16.62;99.18;98349.16;4189173;28;20227;-49
2023/08/09 03:24:51;;;;;;;1.55;1.10;;;;;;;16.59;99.10;98353.31;4202376;28;20211;-49
2023/08/09 03:26:52;;;;;;;1.95;0.70;;;;;;;16.68;98.54;98350.75;4210034;28;20263;-49
2023/08/09 03:28:54;;;;;;;1.65;1.10;;;;;;;16.68;98.96;98356.28;4199147;28;20215;-50
2023/08/09 03:30:59;;;;;;;1.75;1.08;;;;;;;16.72;98.36;98351.78;4202455;28;20227;-49
2023/08/09 03:33:01;;;;;;;1.50;1.15;;;;;;;16.60;98.91;98352.19;4203626;28;21196;-48
2023/08/09 03:35:05;;;;;;;1.20;1.10;;;;;;;16.59;99.18;98347.78;4193258;28;20214;-51
2023/08/09 03:37:06;;;;;;;3.08;1.17;;;;;;;16.60;98.92;98363.25;4211224;28;20211;-50
2023/08/09 03:39:08;;;;;;;4.75;1.13;;;;;;;16.61;98.80;98359.38;4197451;28;20264;-49
2023/08/09 03:41:10;;;;;;;1.83;1.73;;;;;;;16.59;99.07;98363.53;4202641;28;20202;-47
2023/08/09 03:43:11;;;;;;;2.67;1.35;;;;;;;16.61;99.18;98358.53;4204848;28;20219;-47
2023/08/09 03:45:13;;;;;;;4.82;1.20;;;;;;;16.57;99.43;98358.28;4186586;28;20243;-50
2023/08/09 03:47:15;;;;;;;1.75;1.20;;;;;;;16.60;99.08;98349.44;4209387;28;20211;-49
2023/08/09 03:49:17;;;;;;;1.90;1.15;;;;;;;16.59;99.60;98358.84;4202865;28;20268;-48
2023/08/09 03:51:19;;;;;;;1.55;1.45;;;;;;;16.64;99.05;98367.06;4221889;28;20197;-49
2023/08/09 03:53:20;;;;;;;3.67;1.15;;;;;;;16.57;99.48;98372.09;4206430;28;20233;-48
2023/08/09 03:55:22;;;;;;;3.20;1.13;;;;;;;16.65;99.37;98363.22;4204048;28;20211;-48
2023/08/09 03:57:24;;;;;;;2.17;1.48;;;;;;;16.58;99.59;98375.72;4208069;28;20731;-49
2023/08/09 03:59:26;;;;;;;1.75;1.10;;;;;;;16.64;99.96;98375.34;4201933;28;20941;-48
2023/08/09 04:01:28;;;;;;;3.20;1.13;;;;;;;16.60;99.61;98374.31;4220142;28;20201;-48
2023/08/09 04:03:30;;;;;;;2.22;1.40;;;;;;;16.58;99.81;98368.25;4210335;28;20256;-49
2023/08/09 04:05:34;;;;;;;6.43;1.63;;;;;;;16.59;99.53;98369.91;4221031;28;20202;-48
2023/08/09 04:07:36;;;;;;;1.85;1.10;;;;;;;16.57;100.00;98372.09;4193186;28;20203;-49
2023/08/09 04:09:38;;;;;;;2.08;0.98;;;;;;;16.64;99.91;98380.06;4203539;28;20899;-48
2023/08/09 04:11:40;;;;;;;2.55;1.00;;;;;;;16.67;99.82;98382.25;4209527;28;20656;-48
2023/08/09 04:13:41;;;;;;;2.47;1.55;;;;;;;16.63;99.35;98387.53;4208071;28;20607;-48
2023/08/09 04:15:43;;;;;;;3.33;1.27;;;;;;;16.63;99.88;98387.53;4203345;28;20711;-48
2023/08/09 04:17:48;;;;;;;5.10;1.40;;;;;;;16.68;99.56;98379.19;4202159;28;20680;-47
2023/08/09 04:19:50;;;;;;;1.33;0.98;;;;;;;16.68;99.33;98379.19;4208176;28;20198;-46
2023/08/09 04:21:51;;;;;;;1.40;1.30;;;;;;;16.68;99.24;98376.41;4213839;28;20676;-48
2023/08/09 04:23:53;;;;;;;1.48;1.13;;;;;;;16.64;99.73;98372.59;4204214;28;20239;-46
2023/08/09 04:25:57;;;;;;;3.70;1.13;;;;;;;16.67;99.75;98377.53;4204292;28;20207;-47
2023/08/09 04:27:59;;;;;;;2.17;1.30;;;;;;;16.68;99.46;98376.41;4204235;28;20203;-46
2023/08/09 04:30:03;;;;;;;2.35;1.00;;;;;;;16.65;99.19;98374.25;4201236;28;20234;-47
2023/08/09 04:32:04;;;;;;;2.80;1.00;;;;;;;16.59;99.71;98375.44;4225045;28;20233;-47
2023/08/09 04:34:06;;;;;;;1.38;1.13;;;;;;;16.62;99.44;98368.50;4198691;28;20256;-47
2023/08/09 04:36:08;;;;;;;7.00;1.38;;;;;;;16.59;99.49;98367.13;4206721;28;20658;-46
2023/08/09 04:38:10;;;;;;;1.88;1.60;;;;;;;16.62;99.76;98363.78;4207751;28;20204;-46
2023/08/09 04:40:12;;;;;;;4.25;1.20;;;;;;;16.62;99.34;98357.44;4201581;28;20217;-46
2023/08/09 04:42:13;;;;;;;1.65;1.20;;;;;;;16.71;99.11;98356.50;4201739;28;20282;-47
2023/08/09 04:44:16;;;;;;;1.67;1.42;;;;;;;16.61;99.22;98356.59;4204173;28;20239;-46
2023/08/09 04:46:18;;;;;;;2.35;1.33;;;;;;;16.67;99.87;98347.16;4203295;28;20199;-47
2023/08/09 04:48:20;;;;;;;1.73;1.13;;;;;;;16.65;99.48;98346.63;4205063;28;20210;-47
2023/08/09 04:50:23;;;;;;;3.55;1.08;;;;;;;16.66;99.71;98351.03;4171126;28;20234;-47
2023/08/09 04:52:25;;;;;;;2.05;1.20;;;;;;;16.65;99.74;98357.69;4209523;28;20225;-47
2023/08/09 04:54:27;;;;;;;1.80;1.20;;;;;;;16.71;99.67;98356.50;4191106;28;20570;-46
2023/08/09 04:56:28;;;;;;;5.00;1.58;;;;;;;16.77;99.28;98360.84;4219738;28;20247;-47
2023/08/09 04:58:31;;;;;;;4.80;1.13;;;;;;;16.75;100.00;98368.59;4201883;28;20210;-46
2023/08/09 05:00:33;;;;;;;2.72;1.15;;;;;;;16.77;100.00;98366.38;4205761;28;20213;-47
2023/08/09 05:02:36;;;;;;;2.63;1.20;;;;;;;16.74;99.85;98366.13;4208805;28;20260;-46
2023/08/09 05:04:38;;;;;;;2.15;1.15;;;;;;;16.73;100.00;98359.78;4201592;28;20211;-46
2023/08/09 05:06:40;;;;;;;1.80;1.15;;;;;;;16.72;100.00;98374.75;4203790;28;20583;-47
2023/08/09 05:08:42;;;;;;;5.95;1.23;;;;;;;16.78;100.00;98362.50;4202694;28;20269;-46
2023/08/09 05:10:43;;;;;;;2.38;1.20;;;;;;;16.70;100.00;98357.59;4205824;28;20227;-47
2023/08/09 05:12:45;;;;;;;1.60;1.25;;;;;;;16.75;100.00;98363.09;4221407;28;20708;-47
2023/08/09 05:14:47;;;;;;;2.55;1.27;;;;;;;16.69;100.00;98364.25;4201989;28;20280;-47
2023/08/09 05:16:48;;;;;;;2.92;1.05;;;;;;;16.73;100.00;98365.31;4204285;28;20210;-47
2023/08/09 05:18:51;;;;;;;3.83;1.27;;;;;;;16.78;99.85;98368.03;4202471;28;20416;-46
2023/08/09 05:20:53;;;;;;;4.05;1.20;;;;;;;16.74;100.00;98369.72;4207485;28;20280;-46
2023/08/09 05:22:54;;;;;;;3.35;1.17;;;;;;;16.77;100.00;98371.09;4202669;28;20268;-46
2023/08/09 05:24:56;;;;;;;2.05;1.30;;;;;;;16.74;100.00;98372.50;4200812;28;20202;-46
2023/08/09 05:26:58;;;;;;;2.67;1.50;;;;;;;16.78;100.00;98376.34;4205905;28;20594;-47
2023/08/09 05:29:00;;;;;;;3.40;1.30;;;;;;;16.81;100.00;98372.97;4201051;28;20299;-46
2023/08/09 05:31:02;;;;;;;2.85;1.95;;;;;;;16.76;100.00;98364.72;4200523;28;20226;-46
2023/08/09 05:33:04;;;;;;;2.88;1.10;;;;;;;16.85;100.00;98367.69;4200166;28;20238;-46
2023/08/09 05:35:06;;;;;;;1.50;1.05;;;;;;;16.82;100.00;98368.28;4202042;28;20290;-46
2023/08/09 05:37:08;;;;;;;3.00;1.33;;;;;;;16.87;100.00;98377.31;4201301;28;20311;-46
2023/08/09 05:39:10;;;;;;;2.08;1.00;;;;;;;16.94;100.00;98369.50;4202506;28;20257;-47
2023/08/09 05:41:12;;;;;;;1.38;1.08;;;;;;;17.05;99.31;98376.56;4204810;28;20799;-46
2023/08/09 05:43:14;;;;;;;2.17;1.38;;;;;;;17.10;99.08;98377.31;4208258;28;20306;-47
2023/08/09 05:45:17;;;;;;;1.23;0.85;;;;;;;17.14;99.39;98370.09;4202007;28;20208;-47
2023/08/09 05:47:19;;;;;;;3.60;1.25;;;;;;;17.21;99.95;98383.53;4206866;28;20211;-47
2023/08/09 05:49:21;;;;;;;2.83;1.10;;;;;;;17.32;99.43;98390.59;4205902;28;20211;-47
2023/08/09 05:51:24;;;;;;;0.95;0.80;;;;;;;17.38;98.33;98383.91;4203283;28;20708;-46
2023/08/09 05:53:26;;;;;;;2.60;1.30;;;;;;;17.45;98.74;98389.91;4198359;28;20223;-47
2023/08/09 05:55:28;;;;;;;4.18;1.30;;;;;;;17.47;98.88;98393.19;4206436;28;20217;-47
2023/08/09 05:57:30;;;;;;;1.88;1.45;;;;;;;17.58;98.41;98386.41;4203660;28;20207;-48
2023/08/09 05:59:32;;;;;;;2.35;1.20;;;;;;;17.57;97.51;98399.41;4207516;28;20203;-47
2023/08/09 06:01:34;;;;;;;1.38;0.95;;;;;;;17.64;97.89;98390.75;4200039;28;20214;-47
2023/08/09 06:03:39;;;;;;;1.65;1.00;;;;;;;17.73;98.30;98400.81;4205180;28;20595;-47
2023/08/09 06:05:41;;;;;;;2.72;1.20;;;;;;;17.74;97.30;98393.34;4204725;28;20206;-47
2023/08/09 06:07:43;;;;;;;2.03;1.45;;;;;;;17.77;96.54;98393.59;4204567;28;20211;-47
2023/08/09 06:09:45;;;;;;;1.55;1.10;;;;;;;17.67;97.12;98398.44;4204182;28;20260;-48
2023/08/09 06:11:46;;;;;;;1.55;1.10;;;;;;;17.69;97.58;98402.56;4204788;28;20773;-46
2023/08/09 06:13:48;;;;;;;1.73;1.27;;;;;;;17.80;97.76;98403.25;4205369;28;20207;-46
2023/08/09 06:15:50;;;;;;;1.67;0.95;;;;;;;17.73;97.43;98409.13;4210872;28;20241;-46
2023/08/09 06:17:52;;;;;;;1.88;1.02;;;;;;;17.66;97.40;98414.22;4208956;28;20276;-46
2023/08/09 06:19:53;;;;;;;1.83;1.42;;;;;;;17.68;97.89;98411.16;4206391;28;20286;-46
2023/08/09 06:21:55;;;;;;;1.50;1.02;;;;;;;17.72;97.58;98417.75;4204771;28;20245;-47
2023/08/09 06:23:57;;;;;;;1.88;1.20;;;;;;;17.73;98.20;98419.41;4204398;28;20245;-46
2023/08/09 06:25:59;;;;;;;3.05;1.55;;;;;;;17.81;98.11;98421.50;4188135;28;20219;-46
2023/08/09 06:28:01;;;;;;;1.63;1.23;;;;;;;17.90;97.97;98426.06;4204549;28;20215;-46
2023/08/09 06:30:04;;;;;;;7.22;1.20;;;;;;;17.98;98.30;98419.03;4203789;28;20257;-46
2023/08/09 06:32:06;;;;;;;1.63;1.13;;;;;;;18.06;97.41;98430.22;4193453;28;20249;-47
2023/08/09 06:34:08;;;;;;;4.32;1.02;;;;;;;18.10;96.19;98427.69;4202356;28;20211;-46
2023/08/09 06:36:11;;;;;;;2.08;0.98;;;;;;;17.99;96.03;98434.53;4202527;28;20653;-46
2023/08/09 06:38:13;;;;;;;1.60;1.00;;;;;;;18.04;97.17;98426.94;4207063;28;20274;-46
2023/08/09 06:40:16;;;;;;;2.42;1.60;;;;;;;18.15;96.81;98435.94;4207255;28;20722;-46
2023/08/09 06:42:18;;;;;;;1.70;1.58;;;;;;;18.30;97.10;98431.00;4210592;28;20234;-46
2023/08/09 06:44:20;;;;;;;3.78;2.30;;;;;;;18.25;96.45;98441.31;4203456;28;20215;-46
2023/08/09 06:46:22;;;;;;;1.77;1.10;;;;;;;18.22;96.39;98433.59;4210074;28;20203;-46
2023/08/09 06:48:23;;;;;;;2.00;1.30;;;;;;;18.24;96.18;98437.72;4206408;28;20293;-46
2023/08/09 06:50:26;;;;;;;1.65;1.10;;;;;;;18.26;96.74;98432.69;4206739;28;20226;-47
2023/08/09 06:52:28;;;;;;;2.95;2.17;;;;;;;18.20;96.10;98438.63;4203686;28;20254;-46
2023/08/09 06:54:30;;;;;;;2.35;1.45;;;;;;;18.12;96.95;98439.31;4205432;28;20239;-47
2023/08/09 06:56:32;;;;;;;1.73;1.02;;;;;;;18.16;96.51;98451.41;4209519;28;20215;-46
2023/08/09 06:58:34;;;;;;;2.85;0.88;;;;;;;18.26;96.83;98445.75;4206358;28;20212;-47
2023/08/09 07:00:37;;;;;;;2.70;1.20;;;;;;;18.40;95.86;98461.34;4204985;28;20207;-47
2023/08/09 07:02:39;;;;;;;2.00;1.20;;;;;;;18.40;96.06;98453.03;4202865;28;20645;-48
2023/08/09 07:04:40;;;;;;;1.02;0.80;;;;;;;18.40;96.03;98452.19;4187430;28;20219;-48
2023/08/09 07:06:42;;;;;;;2.13;1.27;;;;;;;18.41;96.89;98448.28;4189155;28;20217;-47
2023/08/09 07:08:44;;;;;;;2.05;1.10;;;;;;;18.48;96.25;98448.72;4210255;28;20213;-46
2023/08/09 07:10:46;;;;;;;8.27;1.10;;;;;;;18.42;96.25;98449.94;4201169;28;20258;-47
2023/08/09 07:12:47;;;;;;;1.38;1.20;;;;;;;18.47;96.03;98452.63;4221388;28;20230;-47
2023/08/09 07:14:49;;;;;;;1.25;0.88;;;;;;;18.50;96.90;98458.38;4204918;28;20256;-47
2023/08/09 07:16:51;;;;;;;4.70;1.50;;;;;;;18.50;97.21;98457.53;4203541;28;20214;-47
2023/08/09 07:18:53;;;;;;;1.50;1.17;;;;;;;18.48;97.08;98459.81;4203219;28;20232;-47
2023/08/09 07:20:57;;;;;;;2.88;1.85;;;;;;;18.51;97.35;98456.44;4207599;28;20293;-48
2023/08/09 07:22:59;;;;;;;2.65;1.00;;;;;;;18.44;97.17;98472.63;4205927;28;20231;-47
2023/08/09 07:25:01;;;;;;;2.38;1.00;;;;;;;18.42;96.98;98470.16;4204545;28;20581;-47
2023/08/09 07:27:03;;;;;;;5.40;1.10;;;;;;;18.29;97.11;98472.81;4194115;28;20217;-47
2023/08/09 07:29:05;;;;;;;4.05;1.45;;;;;;;18.31;97.85;98478.94;4201106;28;20249;-49
2023/08/09 07:31:20;;;;;;;2.22;1.40;;;;;;;18.21;98.04;98477.13;4201196;28;20230;-48
2023/08/09 07:33:22;;;;;;;2.67;1.10;;;;;;;18.29;97.87;98489.44;4209297;28;20226;-47
2023/08/09 07:35:24;;;;;;;2.50;1.13;;;;;;;18.30;97.73;98485.53;4203350;28;20207;-47
2023/08/09 07:37:26;;;;;;;1.13;0.93;;;;;;;18.21;97.92;98493.75;4203530;28;20210;-47
2023/08/09 07:39:27;;;;;;;1.23;0.90;;;;;;;18.19;99.61;98500.69;4209567;28;20233;-47
2023/08/09 07:41:29;;;;;;;2.45;0.90;;;;;;;18.14;98.52;98503.53;4205578;28;20203;-47
2023/08/09 07:43:31;;;;;;;2.10;0.90;;;;;;;18.12;98.96;98508.56;4205374;28;20280;-47
2023/08/09 07:45:34;;;;;;;1.67;0.93;;;;;;;18.08;99.33;98500.03;4203142;28;20715;-47
2023/08/09 07:47:40;;;;;;;1.85;1.02;;;;;;;18.21;99.17;98506.75;4201357;28;20203;-48
2023/08/09 07:49:42;;;;;;;2.42;1.10;;;;;;;18.21;99.79;98502.06;4201715;28;20234;-48
2023/08/09 07:51:44;;;;;;;1.73;1.10;;;;;;;18.29;99.40;98503.31;4205991;28;20704;-47
2023/08/09 07:53:46;;;;;;;1.45;1.05;;;;;;;18.27;98.78;98505.56;4208756;28;20218;-48
2023/08/09 07:55:48;;;;;;;2.30;0.95;;;;;;;18.26;99.20;98507.50;4204963;28;20606;-47
2023/08/09 07:57:50;;;;;;;1.17;0.80;;;;;;;18.25;99.29;98507.81;4203672;28;20210;-47
2023/08/09 07:59:52;;;;;;;3.40;1.20;;;;;;;18.20;98.51;98521.72;4187123;28;20208;-47
2023/08/09 08:01:58;;;;;;;2.78;1.30;;;;;;;18.21;98.63;98518.66;4204936;27;20231;-47
2023/08/09 08:04:00;;;;;;;3.35;1.00;;;;;;;18.25;98.90;98519.69;4205143;28;20237;-47
2023/08/09 08:06:02;;;;;;;4.90;1.25;;;;;;;18.17;98.90;98530.63;4209809;28;20293;-48
2023/08/09 08:08:04;;;;;;;1.45;1.05;;;;;;;18.27;98.93;98530.50;4201571;28;20234;-47
2023/08/09 08:10:08;;;;;;;2.17;1.13;;;;;;;18.36;98.64;98531.50;4203564;28;20207;-47
2023/08/09 08:12:11;;;;;;;1.35;1.20;;;;;;;18.47;97.26;98524.69;4208972;28;20777;-48
2023/08/09 08:14:23;;;;;;;2.50;1.27;;;;;;;18.59;97.11;98528.63;4194708;28;20210;-48
2023/08/09 08:16:25;;;;;;;2.58;1.08;;;;;;;18.80;95.87;98529.13;4200896;28;20291;-47
2023/08/09 08:18:27;;;;;;;4.13;1.00;;;;;;;18.75;94.77;98537.53;4201093;28;20692;-48
2023/08/09 08:20:29;;;;;;;1.23;0.90;;;;;;;18.87;95.20;98529.56;4201400;28;20538;-47
2023/08/09 08:22:31;;;;;;;1.13;1.02;;;;;;;18.88;94.99;98531.22;4220744;28;20229;-48
2023/08/09 08:24:33;;;;;;;1.30;1.08;;;;;;;18.96;95.06;98538.84;4203742;28;20207;-47
2023/08/09 08:26:35;;;;;;;2.00;0.90;;;;;;;18.88;95.68;98545.09;4201349;28;20261;-48
2023/08/09 08:28:36;;;;;;;1.35;0.90;;;;;;;18.89;94.75;98550.34;4208073;28;20216;-47
2023/08/09 08:30:38;;;;;;;1.00;0.80;;;;;;;18.90;95.27;98551.13;4204178;28;20660;-48
2023/08/09 08:32:41;;;;;;;1.88;0.80;;;;;;;18.96;95.04;98555.47;4203044;28;20232;-47
2023/08/09 08:34:42;;;;;;;1.55;0.90;;;;;;;18.82;95.53;98557.38;4204409;28;20290;-47
2023/08/09 08:36:44;;;;;;;1.88;1.10;;;;;;;18.96;95.38;98548.00;4203870;28;20222;-47
2023/08/09 08:38:47;;;;;;;1.45;0.93;;;;;;;19.08;94.79;98545.56;4186931;28;20239;-48
2023/08/09 08:40:49;;;;;;;1.90;1.00;;;;;;;19.32;93.54;98548.22;4201192;28;20290;-48
2023/08/09 08:42:51;;;;;;;3.35;1.15;;;;;;;19.47;92.38;98540.44;4201773;28;20266;-47
2023/08/09 08:44:53;;;;;;;2.30;0.82;;;;;;;19.96;92.26;98548.03;4200179;28;20264;-48
2023/08/09 08:46:54;;;;;;;1.05;0.75;;;;;;;19.97;91.85;98544.16;4187802;28;20216;-47
2023/08/09 08:48:58;;;;;;;1.13;0.90;;;;;;;20.37;89.10;98548.88;4192225;28;20712;-47
2023/08/09 08:51:04;;;;;;;1.13;0.73;;;;;;;20.36;87.78;98549.97;4203267;28;20247;-48
2023/08/09 08:53:06;;;;;;;1.40;0.90;;;;;;;20.64;88.25;98559.91;4222198;28;20232;-48
2023/08/09 08:55:10;;;;;;;1.08;1.00;;;;;;;20.33;87.53;98553.38;4188505;28;20207;-48
2023/08/09 08:57:12;;;;;;;3.28;0.82;;;;;;;20.17;90.27;98549.31;4201481;28;20202;-49
2023/08/09 08:59:14;;;;;;;0.95;0.90;;;;;;;19.76;89.64;98548.47;4181716;28;20291;-47
2023/08/09 09:01:18;;;;;;;1.00;0.90;;;;;;;19.89;90.48;98553.19;4197205;28;20198;-47
2023/08/09 09:03:20;;;;;;;2.40;0.90;;;;;;;19.48;91.43;98555.13;4207147;28;20790;-47
2023/08/09 09:05:23;;;;;;;0.70;0.70;;;;;;;19.45;92.99;98562.09;4203019;28;20308;-48
2023/08/09 09:07:38;;;;;;;0.68;0.68;;;;;;;19.25;92.45;98570.00;4206610;28;20321;-48
2023/08/09 09:10:03;;;;;;;1.58;0.80;;;;;;;19.35;93.14;98573.41;4193345;28;20227;-48
2023/08/09 09:12:06;;;;;;;3.80;0.60;;;;;;;19.41;92.50;98565.81;4202993;28;20237;-49
2023/08/09 09:14:11;;;;;;;1.85;0.93;;;;;;;19.34;93.53;98573.72;4186054;28;20219;-48
2023/08/09 09:16:14;;;;;;;1.45;0.80;;;;;;;19.41;93.72;98571.38;4200151;28;20210;-48
2023/08/09 09:18:16;;;;;;;1.23;0.80;;;;;;;19.12;93.90;98571.56;4203382;28;20746;-48
2023/08/09 09:20:29;;;;;;;1.60;0.85;;;;;;;18.95;95.39;98576.03;4201568;28;20215;-48
2023/08/09 09:22:34;;;;;;;1.30;0.90;;;;;;;19.05;95.67;98570.31;4207899;28;20271;-47
2023/08/09 09:24:36;;;;;;;1.88;1.00;;;;;;;18.96;95.83;98572.13;4201081;28;20249;-48
2023/08/09 09:26:38;;;;;;;1.00;0.90;;;;;;;19.11;96.56;98569.13;4203354;28;20284;-48
2023/08/09 09:28:43;;;;;;;1.63;0.98;;;;;;;19.21;96.33;98574.50;4206048;28;20306;-48
2023/08/09 09:30:56;;;;;;;2.60;1.00;;;;;;;19.31;95.44;98568.78;4199168;28;20215;-48
2023/08/09 09:32:59;;;;;;;1.13;0.85;;;;;;;19.30;95.22;98567.94;4221800;28;20682;-48
2023/08/09 09:35:01;;;;;;;1.98;1.10;;;;;;;19.27;94.15;98570.50;4204499;28;20212;-47